createdAt,value
2024-05-09T00:00:10.484Z,19.10
2024-05-09T00:00:29.649Z,18.20
2024-05-09T00:00:36.110Z,17.50
2024-05-09T00:00:41.987Z,17.80
2024-05-09T00:00:52.096Z,18.00
2024-05-09T00:01:02.903Z,18.00
2024-05-09T00:01:13.532Z,17.90
2024-05-09T00:01:24.504Z,18.50
2024-05-09T00:01:35.682Z,19.00
2024-05-09T00:01:46.407Z,19.40
2024-05-09T00:01:57.473Z,18.40
2024-05-09T00:02:08.471Z,18.40
2024-05-09T00:02:19.545Z,18.20
2024-05-09T00:02:30.315Z,18.40
2024-05-09T00:02:40.873Z,18.40
2024-05-09T00:02:51.941Z,18.40
2024-05-09T00:03:02.984Z,18.10
2024-05-09T00:03:13.794Z,18.10
2024-05-09T00:03:24.432Z,17.90
2024-05-09T00:03:35.403Z,17.60
2024-05-09T00:03:46.550Z,17.60
2024-05-09T00:03:57.310Z,18.00
2024-05-09T00:04:07.870Z,18.40
2024-05-09T00:04:18.939Z,18.20
2024-05-09T00:04:29.477Z,18.40
2024-05-09T00:04:40.226Z,18.00
2024-05-09T00:04:51.004Z,18.30
2024-05-09T00:05:01.563Z,18.30
2024-05-09T00:05:12.130Z,18.30
2024-05-09T00:05:22.935Z,18.10
2024-05-09T00:05:33.530Z,18.00
2024-05-09T00:05:44.762Z,18.00
2024-05-09T00:05:55.388Z,17.80
2024-05-09T00:06:06.184Z,18.20
2024-05-09T00:06:16.693Z,18.00
2024-05-09T00:06:27.715Z,18.00
2024-05-09T00:06:38.744Z,18.20
2024-05-09T00:06:49.430Z,18.40
2024-05-09T00:07:00.525Z,18.40
2024-05-09T00:07:11.479Z,18.00
2024-05-09T00:07:22.505Z,18.00
2024-05-09T00:07:33.223Z,18.20
2024-05-09T00:07:44.296Z,18.20
2024-05-09T00:07:55.270Z,18.10
2024-05-09T00:08:06.469Z,18.10
2024-05-09T00:08:17.353Z,18.10
2024-05-09T00:08:27.894Z,18.20
2024-05-09T00:08:38.984Z,18.10
2024-05-09T00:08:49.514Z,17.60
2024-05-09T00:09:00.208Z,17.50
2024-05-09T00:09:11.243Z,18.10
2024-05-09T00:09:22.277Z,18.20
2024-05-09T00:09:32.811Z,17.80
2024-05-09T00:09:43.488Z,17.90
2024-05-09T00:09:54.558Z,17.70
2024-05-09T00:10:07.194Z,18.20
2024-05-09T00:10:25.189Z,18.00
2024-05-09T00:10:35.037Z,18.40
2024-05-09T00:10:39.517Z,18.30
2024-05-09T00:10:48.974Z,18.40
2024-05-09T00:10:59.615Z,18.50
2024-05-09T00:11:10.451Z,18.40
2024-05-09T00:11:21.325Z,18.30
2024-05-09T00:11:31.683Z,17.90
2024-05-09T00:11:42.286Z,18.20
2024-05-09T00:11:53.125Z,18.50
2024-05-09T00:12:03.772Z,19.30
2024-05-09T00:12:14.334Z,19.10
2024-05-09T00:12:25.008Z,18.40
2024-05-09T00:12:35.721Z,18.10
2024-05-09T00:12:46.819Z,17.70
2024-05-09T00:12:57.758Z,18.10
2024-05-09T00:13:09.148Z,18.00
2024-05-09T00:13:20.003Z,18.30
2024-05-09T00:13:30.565Z,18.10
2024-05-09T00:13:41.655Z,17.90
2024-05-09T00:13:52.178Z,17.50
2024-05-09T00:14:02.889Z,17.20
2024-05-09T00:14:13.983Z,17.40
2024-05-09T00:14:25.053Z,17.80
2024-05-09T00:14:35.660Z,18.30
2024-05-09T00:14:46.318Z,18.60
2024-05-09T00:14:57.367Z,18.30
2024-05-09T00:15:08.369Z,17.70
2024-05-09T00:15:19.363Z,17.90
2024-05-09T00:15:30.037Z,18.60
2024-05-09T00:15:41.103Z,19.00
2024-05-09T00:15:52.094Z,18.50
2024-05-09T00:16:03.200Z,18.40
2024-05-09T00:16:13.875Z,18.30
2024-05-09T00:16:24.924Z,18.20
2024-05-09T00:16:35.902Z,18.20
2024-05-09T00:16:46.949Z,18.10
2024-05-09T00:16:57.665Z,17.90
2024-05-09T00:17:08.828Z,17.60
2024-05-09T00:17:19.335Z,17.70
2024-05-09T00:17:30.003Z,17.90
2024-05-09T00:17:41.185Z,17.90
2024-05-09T00:17:52.110Z,17.70
2024-05-09T00:18:03.390Z,17.00
2024-05-09T00:18:13.844Z,17.60
2024-05-09T00:18:24.849Z,18.10
2024-05-09T00:18:35.561Z,18.80
2024-05-09T00:18:46.117Z,18.50
2024-05-09T00:18:56.769Z,18.30
2024-05-09T00:19:07.545Z,17.60
2024-05-09T00:19:18.156Z,17.60
2024-05-09T00:19:28.738Z,17.40
2024-05-09T00:19:39.370Z,18.10
2024-05-09T00:19:50.122Z,18.00
2024-05-09T00:20:01.192Z,17.70
2024-05-09T00:20:17.887Z,17.00
2024-05-09T00:20:28.549Z,17.10
2024-05-09T00:20:38.777Z,17.40
2024-05-09T00:20:44.763Z,17.60
2024-05-09T00:20:55.816Z,17.40
2024-05-09T00:21:06.847Z,17.50
2024-05-09T00:21:17.578Z,17.30
2024-05-09T00:21:28.131Z,17.20
2024-05-09T00:21:39.102Z,17.30
2024-05-09T00:21:50.147Z,17.60
2024-05-09T00:22:00.880Z,18.20
2024-05-09T00:22:11.383Z,18.10
2024-05-09T00:22:22.334Z,17.90
2024-05-09T00:22:33.352Z,17.90
2024-05-09T00:22:44.097Z,17.50
2024-05-09T00:22:55.158Z,17.60
2024-05-09T00:23:06.100Z,17.30
2024-05-09T00:23:17.150Z,17.30
2024-05-09T00:23:27.856Z,17.60
2024-05-09T00:23:38.884Z,17.80
2024-05-09T00:23:49.877Z,17.90
2024-05-09T00:24:00.930Z,17.60
2024-05-09T00:24:11.592Z,17.30
2024-05-09T00:24:22.629Z,17.50
2024-05-09T00:24:33.599Z,18.00
2024-05-09T00:24:44.623Z,17.80
2024-05-09T00:24:55.311Z,17.40
2024-05-09T00:25:06.368Z,17.70
2024-05-09T00:25:17.310Z,17.10
2024-05-09T00:25:28.370Z,17.00
2024-05-09T00:25:39.102Z,17.10
2024-05-09T00:25:50.160Z,17.90
2024-05-09T00:26:01.176Z,18.10
2024-05-09T00:26:12.180Z,17.90
2024-05-09T00:26:22.934Z,17.90
2024-05-09T00:26:33.517Z,17.90
2024-05-09T00:26:44.046Z,17.70
2024-05-09T00:26:55.069Z,17.70
2024-05-09T00:27:05.928Z,18.20
2024-05-09T00:27:16.481Z,17.80
2024-05-09T00:27:27.444Z,17.60
2024-05-09T00:27:38.467Z,17.60
2024-05-09T00:27:49.139Z,17.90
2024-05-09T00:28:00.323Z,17.80
2024-05-09T00:28:10.734Z,17.30
2024-05-09T00:28:21.746Z,17.70
2024-05-09T00:28:32.451Z,17.40
2024-05-09T00:28:43.634Z,17.10
2024-05-09T00:28:54.613Z,16.80
2024-05-09T00:29:05.642Z,17.00
2024-05-09T00:29:16.406Z,17.80
2024-05-09T00:29:27.140Z,17.70
2024-05-09T00:29:37.656Z,17.30
2024-05-09T00:29:48.687Z,17.10
2024-05-09T00:29:59.324Z,17.20
2024-05-09T00:30:14.387Z,17.20
2024-05-09T00:30:28.467Z,17.40
2024-05-09T00:30:35.680Z,17.60
2024-05-09T00:30:43.668Z,17.60
2024-05-09T00:30:54.139Z,17.50
2024-05-09T00:31:05.087Z,17.30
2024-05-09T00:31:16.124Z,17.20
2024-05-09T00:31:26.958Z,16.90
2024-05-09T00:31:37.469Z,17.00
2024-05-09T00:31:48.587Z,16.90
2024-05-09T00:31:59.148Z,17.00
2024-05-09T00:32:09.943Z,17.00
2024-05-09T00:32:20.571Z,17.10
2024-05-09T00:32:31.125Z,17.30
2024-05-09T00:32:42.068Z,17.30
2024-05-09T00:32:53.074Z,17.90
2024-05-09T00:33:04.648Z,17.80
2024-05-09T00:33:14.359Z,18.00
2024-05-09T00:33:25.091Z,17.50
2024-05-09T00:33:35.914Z,17.40
2024-05-09T00:33:46.619Z,16.90
2024-05-09T00:33:57.371Z,17.30
2024-05-09T00:34:08.214Z,17.40
2024-05-09T00:34:18.989Z,18.00
2024-05-09T00:34:29.604Z,17.80
2024-05-09T00:34:40.092Z,17.40
2024-05-09T00:34:51.196Z,17.40
2024-05-09T00:35:01.890Z,17.30
2024-05-09T00:35:12.959Z,17.70
2024-05-09T00:35:23.944Z,17.70
2024-05-09T00:35:35.098Z,17.20
2024-05-09T00:35:45.898Z,17.20
2024-05-09T00:35:57.026Z,17.20
2024-05-09T00:36:07.956Z,17.50
2024-05-09T00:36:18.995Z,17.50
2024-05-09T00:36:29.763Z,18.20
2024-05-09T00:36:40.237Z,18.00
2024-05-09T00:36:51.228Z,17.60
2024-05-09T00:37:02.272Z,17.20
2024-05-09T00:37:13.006Z,17.10
2024-05-09T00:37:23.515Z,17.50
2024-05-09T00:37:34.514Z,17.80
2024-05-09T00:37:45.201Z,17.80
2024-05-09T00:37:55.935Z,17.10
2024-05-09T00:38:06.678Z,16.80
2024-05-09T00:38:17.227Z,17.10
2024-05-09T00:38:28.289Z,17.10
2024-05-09T00:38:39.055Z,17.40
2024-05-09T00:38:49.581Z,17.20
2024-05-09T00:39:00.538Z,17.40
2024-05-09T00:39:11.559Z,17.30
2024-05-09T00:39:22.235Z,16.80
2024-05-09T00:39:33.344Z,16.50
2024-05-09T00:39:44.262Z,16.90
2024-05-09T00:39:55.302Z,17.60
2024-05-09T00:40:09.516Z,17.80
2024-05-09T00:40:26.459Z,17.50
2024-05-09T00:40:35.731Z,17.40
2024-05-09T00:40:41.677Z,17.20
2024-05-09T00:40:49.895Z,17.50
2024-05-09T00:41:00.397Z,17.30
2024-05-09T00:41:11.377Z,17.60
2024-05-09T00:41:22.387Z,17.60
2024-05-09T00:41:33.103Z,17.20
2024-05-09T00:41:43.711Z,16.90
2024-05-09T00:41:54.672Z,16.70
2024-05-09T00:42:05.695Z,16.80
2024-05-09T00:42:16.376Z,16.60
2024-05-09T00:42:27.431Z,16.90
2024-05-09T00:42:38.400Z,16.80
2024-05-09T00:42:49.423Z,17.20
2024-05-09T00:43:00.178Z,17.40
2024-05-09T00:43:11.850Z,17.60
2024-05-09T00:43:21.873Z,17.60
2024-05-09T00:43:33.029Z,17.30
2024-05-09T00:43:43.729Z,17.30
2024-05-09T00:43:54.768Z,17.00
2024-05-09T00:44:05.835Z,17.00
2024-05-09T00:44:16.359Z,16.70
2024-05-09T00:44:27.037Z,16.80
2024-05-09T00:44:38.123Z,16.70
2024-05-09T00:44:49.076Z,17.00
2024-05-09T00:45:00.174Z,16.50
2024-05-09T00:45:10.832Z,16.90
2024-05-09T00:45:21.907Z,17.50
2024-05-09T00:45:32.872Z,18.10
2024-05-09T00:45:44.290Z,17.80
2024-05-09T00:45:55.061Z,16.90
2024-05-09T00:46:06.176Z,16.20
2024-05-09T00:46:17.123Z,17.00
2024-05-09T00:46:28.160Z,17.90
2024-05-09T00:46:38.814Z,18.20
2024-05-09T00:46:49.943Z,18.00
2024-05-09T00:47:00.925Z,18.20
2024-05-09T00:47:12.127Z,17.80
2024-05-09T00:47:23.185Z,17.70
2024-05-09T00:47:33.885Z,17.60
2024-05-09T00:47:44.470Z,18.00
2024-05-09T00:47:55.084Z,17.90
2024-05-09T00:48:05.989Z,18.00
2024-05-09T00:48:19.727Z,17.40
2024-05-09T00:48:27.672Z,17.50
2024-05-09T00:48:38.275Z,17.60
2024-05-09T00:48:49.055Z,18.10
2024-05-09T00:48:59.751Z,18.10
2024-05-09T00:49:10.250Z,18.00
2024-05-09T00:49:21.474Z,18.40
2024-05-09T00:49:32.239Z,18.40
2024-05-09T00:49:42.988Z,18.50
2024-05-09T00:49:53.512Z,18.10
2024-05-09T00:50:09.821Z,17.80
2024-05-09T00:50:19.447Z,17.20
2024-05-09T00:50:34.083Z,17.80
2024-05-09T00:50:38.236Z,18.00
2024-05-09T00:50:48.193Z,18.10
2024-05-09T00:50:58.950Z,18.00
2024-05-09T00:51:10.133Z,18.00
2024-05-09T00:51:20.662Z,17.90
2024-05-09T00:51:31.709Z,17.80
2024-05-09T00:51:42.380Z,17.40
2024-05-09T00:51:53.491Z,17.10
2024-05-09T00:52:04.458Z,16.70
2024-05-09T00:52:15.497Z,17.20
2024-05-09T00:52:26.217Z,17.80
2024-05-09T00:52:37.246Z,18.10
2024-05-09T00:52:48.292Z,17.60
2024-05-09T00:52:58.835Z,17.50
2024-05-09T00:53:09.613Z,17.80
2024-05-09T00:53:20.142Z,18.20
2024-05-09T00:53:31.272Z,18.70
2024-05-09T00:53:41.862Z,18.50
2024-05-09T00:53:52.517Z,18.10
2024-05-09T00:54:03.593Z,17.50
2024-05-09T00:54:14.562Z,16.90
2024-05-09T00:54:25.583Z,16.90
2024-05-09T00:54:36.297Z,17.00
2024-05-09T00:54:47.326Z,17.10
2024-05-09T00:54:58.295Z,17.40
2024-05-09T00:55:09.304Z,17.30
2024-05-09T00:55:19.974Z,17.10
2024-05-09T00:55:31.056Z,17.10
2024-05-09T00:55:42.099Z,17.30
2024-05-09T00:55:52.815Z,17.40
2024-05-09T00:56:03.537Z,17.50
2024-05-09T00:56:14.589Z,17.90
2024-05-09T00:56:25.683Z,17.80
2024-05-09T00:56:36.242Z,17.70
2024-05-09T00:56:46.984Z,17.30
2024-05-09T00:56:57.497Z,17.00
2024-05-09T00:57:08.450Z,16.80
2024-05-09T00:57:19.493Z,16.40
2024-05-09T00:57:30.196Z,16.50
2024-05-09T00:57:41.237Z,16.70
2024-05-09T00:57:52.214Z,17.30
2024-05-09T00:58:03.237Z,17.40
2024-05-09T00:58:13.911Z,17.60
2024-05-09T00:58:24.971Z,17.70
2024-05-09T00:58:35.955Z,18.20
2024-05-09T00:58:46.594Z,18.00
2024-05-09T00:58:57.301Z,18.00
2024-05-09T00:59:07.866Z,18.00
2024-05-09T00:59:18.980Z,18.10
2024-05-09T00:59:29.613Z,18.10
2024-05-09T00:59:40.338Z,18.10
2024-05-09T00:59:50.851Z,17.60
2024-05-09T01:00:01.828Z,17.30
2024-05-09T01:00:22.562Z,17.00
2024-05-09T01:00:31.488Z,17.60
2024-05-09T01:00:39.232Z,17.50
2024-05-09T01:00:45.750Z,17.30
2024-05-09T01:00:56.294Z,17.20
2024-05-09T01:01:07.013Z,17.60
2024-05-09T01:01:17.611Z,18.10
2024-05-09T01:01:28.648Z,18.20
2024-05-09T01:01:39.339Z,17.80
2024-05-09T01:01:50.193Z,17.50
2024-05-09T01:02:00.869Z,17.00
2024-05-09T01:02:11.899Z,17.20
2024-05-09T01:02:22.535Z,17.40
2024-05-09T01:02:33.391Z,17.40
2024-05-09T01:02:43.972Z,17.50
2024-05-09T01:02:55.041Z,17.50
2024-05-09T01:03:06.100Z,18.00
2024-05-09T01:03:16.368Z,17.80
2024-05-09T01:03:27.388Z,17.80
2024-05-09T01:03:38.580Z,17.30
2024-05-09T01:03:50.936Z,17.40
2024-05-09T01:03:58.997Z,17.80
2024-05-09T01:04:09.823Z,17.80
2024-05-09T01:04:20.304Z,17.80
2024-05-09T01:04:31.366Z,17.90
2024-05-09T01:04:42.140Z,17.50
2024-05-09T01:04:52.727Z,17.70
2024-05-09T01:05:03.256Z,17.70
2024-05-09T01:05:13.812Z,17.60
2024-05-09T01:05:24.645Z,17.30
2024-05-09T01:05:35.885Z,16.70
2024-05-09T01:05:46.515Z,17.10
2024-05-09T01:05:57.017Z,17.50
2024-05-09T01:06:07.723Z,17.80
2024-05-09T01:06:18.777Z,17.40
2024-05-09T01:06:29.747Z,17.10
2024-05-09T01:06:40.786Z,17.00
2024-05-09T01:06:51.552Z,17.40
2024-05-09T01:07:02.062Z,17.40
2024-05-09T01:07:13.026Z,17.70
2024-05-09T01:07:24.068Z,17.50
2024-05-09T01:07:34.754Z,17.00
2024-05-09T01:07:45.884Z,16.80
2024-05-09T01:07:56.903Z,16.40
2024-05-09T01:08:08.324Z,17.10
2024-05-09T01:08:18.745Z,17.30
2024-05-09T01:08:29.345Z,17.60
2024-05-09T01:08:40.426Z,17.30
2024-05-09T01:08:50.919Z,16.70
2024-05-09T01:09:01.629Z,16.80
2024-05-09T01:09:12.667Z,17.30
2024-05-09T01:09:23.794Z,18.10
2024-05-09T01:09:34.240Z,17.70
2024-05-09T01:09:44.923Z,17.60
2024-05-09T01:09:55.971Z,17.00
2024-05-09T01:10:13.837Z,17.20
2024-05-09T01:10:24.307Z,17.70
2024-05-09T01:10:34.148Z,17.60
2024-05-09T01:10:41.704Z,17.80
2024-05-09T01:10:50.795Z,17.60
2024-05-09T01:11:01.490Z,17.90
2024-05-09T01:11:12.441Z,17.80
2024-05-09T01:11:23.206Z,18.70
2024-05-09T01:11:33.783Z,18.70
2024-05-09T01:11:44.471Z,18.20
2024-05-09T01:11:55.421Z,17.60
2024-05-09T01:12:06.097Z,17.30
2024-05-09T01:12:16.567Z,17.60
2024-05-09T01:12:27.751Z,17.60
2024-05-09T01:12:38.497Z,17.30
2024-05-09T01:12:49.535Z,17.70
2024-05-09T01:13:00.489Z,17.40
2024-05-09T01:13:11.578Z,17.20
2024-05-09T01:13:22.215Z,17.10
2024-05-09T01:13:33.289Z,17.20
2024-05-09T01:13:44.285Z,17.40
2024-05-09T01:13:55.411Z,17.30
2024-05-09T01:14:06.116Z,17.70
2024-05-09T01:14:16.735Z,17.90
2024-05-09T01:14:27.764Z,17.70
2024-05-09T01:14:38.779Z,17.70
2024-05-09T01:14:49.534Z,17.90
2024-05-09T01:14:59.993Z,17.80
2024-05-09T01:15:11.079Z,17.60
2024-05-09T01:15:21.546Z,17.20
2024-05-09T01:15:32.240Z,17.30
2024-05-09T01:15:43.400Z,17.30
2024-05-09T01:15:53.824Z,16.80
2024-05-09T01:16:04.839Z,16.50
2024-05-09T01:16:15.513Z,16.90
2024-05-09T01:16:26.564Z,17.20
2024-05-09T01:16:37.544Z,17.10
2024-05-09T01:16:48.630Z,17.50
2024-05-09T01:16:59.382Z,17.20
2024-05-09T01:17:10.002Z,18.10
2024-05-09T01:17:20.589Z,17.60
2024-05-09T01:17:31.321Z,17.90
2024-05-09T01:17:42.386Z,17.20
2024-05-09T01:17:53.315Z,17.60
2024-05-09T01:18:04.073Z,17.70
2024-05-09T01:18:15.024Z,17.70
2024-05-09T01:18:25.891Z,17.10
2024-05-09T01:18:36.460Z,17.00
2024-05-09T01:18:47.591Z,17.00
2024-05-09T01:18:58.158Z,16.60
2024-05-09T01:19:09.041Z,16.60
2024-05-09T01:19:19.738Z,16.90
2024-05-09T01:19:30.439Z,17.30
2024-05-09T01:19:41.049Z,17.20
2024-05-09T01:19:51.837Z,16.60
2024-05-09T01:20:02.708Z,16.40
2024-05-09T01:20:20.028Z,16.50
2024-05-09T01:20:32.147Z,16.50
2024-05-09T01:20:41.500Z,16.50
2024-05-09T01:20:46.448Z,16.70
2024-05-09T01:20:57.506Z,16.50
2024-05-09T01:21:08.036Z,17.20
2024-05-09T01:21:18.773Z,17.20
2024-05-09T01:21:29.354Z,17.90
2024-05-09T01:21:40.270Z,17.50
2024-05-09T01:21:51.301Z,17.60
2024-05-09T01:22:02.030Z,17.50
2024-05-09T01:22:13.046Z,17.50
2024-05-09T01:22:24.031Z,17.40
2024-05-09T01:22:35.066Z,17.50
2024-05-09T01:22:45.852Z,17.50
2024-05-09T01:22:56.437Z,17.50
2024-05-09T01:23:07.621Z,17.30
2024-05-09T01:23:18.201Z,17.60
2024-05-09T01:23:28.923Z,17.60
2024-05-09T01:23:40.011Z,17.30
2024-05-09T01:23:50.951Z,17.20
2024-05-09T01:24:02.109Z,17.20
2024-05-09T01:24:12.723Z,17.10
2024-05-09T01:24:23.770Z,16.30
2024-05-09T01:24:34.742Z,16.50
2024-05-09T01:24:45.785Z,17.00
2024-05-09T01:24:56.433Z,17.60
2024-05-09T01:25:07.479Z,18.20
2024-05-09T01:25:18.482Z,17.90
2024-05-09T01:25:29.470Z,18.10
2024-05-09T01:25:40.149Z,17.70
2024-05-09T01:25:51.296Z,17.50
2024-05-09T01:26:02.289Z,16.90
2024-05-09T01:26:13.347Z,16.90
2024-05-09T01:26:24.091Z,17.20
2024-05-09T01:26:34.648Z,17.50
2024-05-09T01:26:45.689Z,17.60
2024-05-09T01:26:56.692Z,17.30
2024-05-09T01:27:07.358Z,17.00
2024-05-09T01:27:18.388Z,16.80
2024-05-09T01:27:29.343Z,17.00
2024-05-09T01:27:40.426Z,17.10
2024-05-09T01:27:51.112Z,17.40
2024-05-09T01:28:02.275Z,18.20
2024-05-09T01:28:13.229Z,18.20
2024-05-09T01:28:24.249Z,18.10
2024-05-09T01:28:34.950Z,17.50
2024-05-09T01:28:45.568Z,17.70
2024-05-09T01:28:56.602Z,17.30
2024-05-09T01:29:07.090Z,17.30
2024-05-09T01:29:17.826Z,16.90
2024-05-09T01:29:28.435Z,16.90
2024-05-09T01:29:39.381Z,16.90
2024-05-09T01:29:50.414Z,16.80
2024-05-09T01:30:01.080Z,17.20
2024-05-09T01:30:17.213Z,17.10
2024-05-09T01:30:31.287Z,17.20
2024-05-09T01:30:36.520Z,16.90
2024-05-09T01:30:44.820Z,16.80
2024-05-09T01:30:55.841Z,16.80
2024-05-09T01:31:06.926Z,17.30
2024-05-09T01:31:17.366Z,17.00
2024-05-09T01:31:28.140Z,17.30
2024-05-09T01:31:38.656Z,16.90
2024-05-09T01:31:49.675Z,17.40
2024-05-09T01:32:00.923Z,16.80
2024-05-09T01:32:11.702Z,17.10
2024-05-09T01:32:22.540Z,17.00
2024-05-09T01:32:33.189Z,17.20
2024-05-09T01:32:43.814Z,16.80
2024-05-09T01:32:54.801Z,16.90
2024-05-09T01:33:06.800Z,17.00
2024-05-09T01:33:16.471Z,16.40
2024-05-09T01:33:27.381Z,16.50
2024-05-09T01:33:37.932Z,16.50
2024-05-09T01:33:48.367Z,17.10
2024-05-09T01:33:58.918Z,17.30
2024-05-09T01:34:09.507Z,17.00
2024-05-09T01:34:20.343Z,17.00
2024-05-09T01:34:30.830Z,16.60
2024-05-09T01:34:41.769Z,16.40
2024-05-09T01:34:52.792Z,16.10
2024-05-09T01:35:03.507Z,16.90
2024-05-09T01:35:14.099Z,17.00
2024-05-09T01:35:25.167Z,16.70
2024-05-09T01:35:35.921Z,16.80
2024-05-09T01:35:46.636Z,16.80
2024-05-09T01:35:57.703Z,16.80
2024-05-09T01:36:08.753Z,16.20
2024-05-09T01:36:19.231Z,16.30
2024-05-09T01:36:29.911Z,16.40
2024-05-09T01:36:41.011Z,16.80
2024-05-09T01:36:51.922Z,16.80
2024-05-09T01:37:02.964Z,16.40
2024-05-09T01:37:13.662Z,16.10
2024-05-09T01:37:24.726Z,16.10
2024-05-09T01:37:35.704Z,15.80
2024-05-09T01:37:46.271Z,16.10
2024-05-09T01:37:56.995Z,16.20
2024-05-09T01:38:07.622Z,16.80
2024-05-09T01:38:18.157Z,16.20
2024-05-09T01:38:28.749Z,16.60
2024-05-09T01:38:39.488Z,16.60
2024-05-09T01:38:50.501Z,16.50
2024-05-09T01:39:01.489Z,16.30
2024-05-09T01:39:12.599Z,16.30
2024-05-09T01:39:23.258Z,16.40
2024-05-09T01:39:34.295Z,16.60
2024-05-09T01:39:45.277Z,17.00
2024-05-09T01:39:56.292Z,17.10
2024-05-09T01:40:11.986Z,17.10
2024-05-09T01:40:22.138Z,17.10
2024-05-09T01:40:36.639Z,17.60
2024-05-09T01:40:40.567Z,17.30
2024-05-09T01:40:50.816Z,16.90
2024-05-09T01:41:01.393Z,16.70
2024-05-09T01:41:12.418Z,17.00
2024-05-09T01:41:22.935Z,17.10
2024-05-09T01:41:33.680Z,17.30
2024-05-09T01:41:44.136Z,17.50
2024-05-09T01:41:55.119Z,17.60
2024-05-09T01:42:06.150Z,17.10
2024-05-09T01:42:16.834Z,17.50
2024-05-09T01:42:27.883Z,17.60
2024-05-09T01:42:38.947Z,17.90
2024-05-09T01:42:49.929Z,17.10
2024-05-09T01:43:00.643Z,17.40
2024-05-09T01:43:12.092Z,17.40
2024-05-09T01:43:22.269Z,17.40
2024-05-09T01:43:33.274Z,17.50
2024-05-09T01:43:44.009Z,17.30
2024-05-09T01:43:55.081Z,17.50
2024-05-09T01:44:06.102Z,17.30
2024-05-09T01:44:17.152Z,17.30
2024-05-09T01:44:27.847Z,17.30
2024-05-09T01:44:38.861Z,17.30
2024-05-09T01:44:49.833Z,17.50
2024-05-09T01:45:00.846Z,17.80
2024-05-09T01:45:11.694Z,17.70
2024-05-09T01:45:22.186Z,17.80
2024-05-09T01:45:33.268Z,17.60
2024-05-09T01:45:43.788Z,17.60
2024-05-09T01:45:54.531Z,17.40
2024-05-09T01:46:05.536Z,17.50
2024-05-09T01:46:16.490Z,17.80
2024-05-09T01:46:27.497Z,18.00
2024-05-09T01:46:38.201Z,17.40
2024-05-09T01:46:49.289Z,16.80
2024-05-09T01:47:00.242Z,17.10
2024-05-09T01:47:11.370Z,16.80
2024-05-09T01:47:22.406Z,17.30
2024-05-09T01:47:33.241Z,17.20
2024-05-09T01:47:43.840Z,16.90
2024-05-09T01:47:54.672Z,16.70
2024-05-09T01:48:05.688Z,16.40
2024-05-09T01:48:16.458Z,16.40
2024-05-09T01:48:27.073Z,16.60
2024-05-09T01:48:37.672Z,16.60
2024-05-09T01:48:48.535Z,16.60
2024-05-09T01:48:59.258Z,17.00
2024-05-09T01:49:09.826Z,17.40
2024-05-09T01:49:20.415Z,17.80
2024-05-09T01:49:31.307Z,17.20
2024-05-09T01:49:41.877Z,17.20
2024-05-09T01:49:52.901Z,17.50
2024-05-09T01:50:06.668Z,17.10
2024-05-09T01:50:36.575Z,17.60
2024-05-09T01:50:40.482Z,18.00
2024-05-09T01:50:47.747Z,18.00
2024-05-09T01:50:58.457Z,18.10
2024-05-09T01:51:09.591Z,18.00
2024-05-09T01:51:20.156Z,17.30
2024-05-09T01:51:31.225Z,17.50
2024-05-09T01:51:41.866Z,17.50
2024-05-09T01:51:52.920Z,18.20
2024-05-09T01:52:03.906Z,17.70
2024-05-09T01:52:14.909Z,17.70
2024-05-09T01:52:25.606Z,17.60
2024-05-09T01:52:36.679Z,18.00
2024-05-09T01:52:47.694Z,18.20
2024-05-09T01:52:58.930Z,18.20
2024-05-09T01:53:10.044Z,17.90
2024-05-09T01:53:20.310Z,17.40
2024-05-09T01:53:31.428Z,17.60
2024-05-09T01:53:42.033Z,17.50
2024-05-09T01:53:52.728Z,17.40
2024-05-09T01:54:03.790Z,16.90
2024-05-09T01:54:14.765Z,17.10
2024-05-09T01:54:25.774Z,17.00
2024-05-09T01:54:36.464Z,17.00
2024-05-09T01:54:47.514Z,16.90
2024-05-09T01:55:00.704Z,17.10
2024-05-09T01:55:09.152Z,17.40
2024-05-09T01:55:19.837Z,17.70
2024-05-09T01:55:30.912Z,17.80
2024-05-09T01:55:41.912Z,17.60
2024-05-09T01:55:52.942Z,17.30
2024-05-09T01:56:03.632Z,17.20
2024-05-09T01:56:14.733Z,16.60
2024-05-09T01:56:25.772Z,16.60
2024-05-09T01:56:36.823Z,16.90
2024-05-09T01:56:47.458Z,17.10
2024-05-09T01:56:58.506Z,17.30
2024-05-09T01:57:09.549Z,17.60
2024-05-09T01:57:20.572Z,17.60
2024-05-09T01:57:31.272Z,17.80
2024-05-09T01:57:42.598Z,17.90
2024-05-09T01:57:53.036Z,18.50
2024-05-09T01:58:04.225Z,18.20
2024-05-09T01:58:14.858Z,18.20
2024-05-09T01:58:25.916Z,18.10
2024-05-09T01:58:36.885Z,18.20
2024-05-09T01:58:47.955Z,17.90
2024-05-09T01:58:58.636Z,17.60
2024-05-09T01:59:09.768Z,17.50
2024-05-09T01:59:20.782Z,17.70
2024-05-09T01:59:31.321Z,17.60
2024-05-09T01:59:41.935Z,18.00
2024-05-09T01:59:52.975Z,17.70
2024-05-09T02:00:03.811Z,18.40
2024-05-09T02:00:22.107Z,18.50
2024-05-09T02:00:34.162Z,18.70
2024-05-09T02:00:40.362Z,18.10
2024-05-09T02:00:47.325Z,17.70
2024-05-09T02:00:57.812Z,17.10
2024-05-09T02:01:08.565Z,17.20
2024-05-09T02:01:19.065Z,17.40
2024-05-09T02:01:30.267Z,17.80
2024-05-09T02:01:56.014Z,17.80
2024-05-09T02:01:56.844Z,17.80
2024-05-09T02:02:03.169Z,17.70
2024-05-09T02:02:13.731Z,17.20
2024-05-09T02:02:24.321Z,16.90
2024-05-09T02:02:35.076Z,17.20
2024-05-09T02:02:45.682Z,17.60
2024-05-09T02:02:56.828Z,17.50
2024-05-09T02:03:07.853Z,17.50
2024-05-09T02:03:18.812Z,17.30
2024-05-09T02:03:29.634Z,17.50
2024-05-09T02:03:40.402Z,17.10
2024-05-09T02:03:51.107Z,17.80
2024-05-09T02:04:02.336Z,18.10
2024-05-09T02:04:12.874Z,18.20
2024-05-09T02:04:23.783Z,18.00
2024-05-09T02:04:34.355Z,17.60
2024-05-09T02:04:45.167Z,16.80
2024-05-09T02:04:55.855Z,16.60
2024-05-09T02:05:06.525Z,17.30
2024-05-09T02:05:17.423Z,17.10
2024-05-09T02:05:28.345Z,17.00
2024-05-09T02:05:39.122Z,17.00
2024-05-09T02:05:49.898Z,18.00
2024-05-09T02:06:00.741Z,18.10
2024-05-09T02:06:11.631Z,18.20
2024-05-09T02:06:22.157Z,18.10
2024-05-09T02:06:33.111Z,18.20
2024-05-09T02:06:44.227Z,18.20
2024-05-09T02:06:54.852Z,18.00
2024-05-09T02:07:06.057Z,18.30
2024-05-09T02:07:16.450Z,18.00
2024-05-09T02:07:27.545Z,17.70
2024-05-09T02:07:38.367Z,17.60
2024-05-09T02:07:48.943Z,17.80
2024-05-09T02:08:00.074Z,17.70
2024-05-09T02:08:10.649Z,18.10
2024-05-09T02:08:21.975Z,18.00
2024-05-09T02:08:32.244Z,17.90
2024-05-09T02:08:42.773Z,17.60
2024-05-09T02:08:53.279Z,17.90
2024-05-09T02:09:04.008Z,18.40
2024-05-09T02:09:14.502Z,19.10
2024-05-09T02:09:25.507Z,18.80
2024-05-09T02:09:36.490Z,18.40
2024-05-09T02:09:47.234Z,17.70
2024-05-09T02:09:58.315Z,17.50
2024-05-09T02:10:16.185Z,17.60
2024-05-09T02:10:25.992Z,17.50
2024-05-09T02:10:32.989Z,17.50
2024-05-09T02:10:41.898Z,17.70
2024-05-09T02:10:52.921Z,17.60
2024-05-09T02:11:03.525Z,17.30
2024-05-09T02:11:14.366Z,17.30
2024-05-09T02:11:24.943Z,17.60
2024-05-09T02:11:35.542Z,17.20
2024-05-09T02:11:46.174Z,17.70
2024-05-09T02:11:56.994Z,17.40
2024-05-09T02:12:07.694Z,17.70
2024-05-09T02:12:18.329Z,17.20
2024-05-09T02:12:28.923Z,17.90
2024-05-09T02:12:39.594Z,17.90
2024-05-09T02:12:50.656Z,18.30
2024-05-09T02:13:01.623Z,17.70
2024-05-09T02:13:12.741Z,17.30
2024-05-09T02:13:23.387Z,16.90
2024-05-09T02:13:34.456Z,16.80
2024-05-09T02:13:45.478Z,17.00
2024-05-09T02:13:56.498Z,17.50
2024-05-09T02:14:07.273Z,17.60
2024-05-09T02:14:17.801Z,17.50
2024-05-09T02:14:28.743Z,17.60
2024-05-09T02:14:39.826Z,17.50
2024-05-09T02:14:50.473Z,17.20
2024-05-09T02:15:01.544Z,17.20
2024-05-09T02:15:12.502Z,17.10
2024-05-09T02:15:23.510Z,17.10
2024-05-09T02:15:34.201Z,17.40
2024-05-09T02:15:45.398Z,17.70
2024-05-09T02:15:55.798Z,17.70
2024-05-09T02:16:06.821Z,17.90
2024-05-09T02:16:17.533Z,17.80
2024-05-09T02:16:28.566Z,17.50
2024-05-09T02:16:39.540Z,17.00
2024-05-09T02:16:50.667Z,16.50
2024-05-09T02:17:01.528Z,16.00
2024-05-09T02:17:12.131Z,16.10
2024-05-09T02:17:22.934Z,17.00
2024-05-09T02:17:33.702Z,17.50
2024-05-09T02:17:44.764Z,17.00
2024-05-09T02:17:55.697Z,16.90
2024-05-09T02:18:06.418Z,17.40
2024-05-09T02:18:17.199Z,17.60
2024-05-09T02:18:28.089Z,16.90
2024-05-09T02:18:38.761Z,16.50
2024-05-09T02:18:49.381Z,17.00
2024-05-09T02:19:00.094Z,17.50
2024-05-09T02:19:10.957Z,17.40
2024-05-09T02:19:21.704Z,16.90
2024-05-09T02:19:32.227Z,16.20
2024-05-09T02:19:42.808Z,17.10
2024-05-09T02:19:53.579Z,17.80